Terminal Aerodrome Forecast
Issued by NWS

Current Version | Previous Version | Graphics & Text | Print | Product List | Glossary On
Versions: 1 2 3 4 5 6 7 8 9 10 11 12 13 14 15 16 17 18 19 20
499
FTUS41 KPBZ 231628 AAA
TAFHLG
TAF AMD
KHLG 231628Z 2316/2412 27006KT P6SM BKN035
     FM231900 30006KT P6SM VCTS BKN040CB
     FM232100 36003KT P6SM FEW250
     FM241000 00000KT 5SM HZ FEW250=

USA.gov is the U.S. government's official web portal to all federal, state and local government web resources and services.